CAT ESP
Pilots school
Telephone 972234126 972 23 41 26
 
Aerbrava - Aeronautical weather

Aeronautical weather

 

This section shows the meteorological information that is used in the practice of students in the pilot school at our center during training, so it may not be current and should be used at your own risk. AERBRAVA is not responsible for its use.

 

ACTUAL WEATHER

Satellite weather image

sat24.com

Servei Meteorològic de Catalunya

 

LEGE 210100Z 18009KT 9999 FEW020 17/13 Q1015
LEGE 210030Z 21009KT 170V260 9999 FEW020 17/13 Q1015
LEGE 210000Z 20012KT 170V230 9999 FEW020 17/14 Q1015
LEGE 202330Z 22006KT 150V300 9999 FEW020 18/14 Q1016
LEGE 202300Z 19013KT 170V230 9999 FEW020 18/14 Q1016
LEGE 202230Z 20013KT 9999 FEW020 18/14 Q1016
LEGE 202200Z 20013KT 9999 FEW020 18/14 Q1017
LEGE 202130Z 20015KT 9999 FEW020 18/15 Q1017
TAF LEGE 202300Z 2100/2124 19009KT 9999 FEW030 TX24/2112Z TN13/2106Z   BECMG 2101/2103 VRB05KT   PROB40   TEMPO 2109/2118 SHRA BKN014 FEW040TCU   PROB40   TEMPO 2110/2112 18010KT   PROB40   TEMPO 2122/2124 SHRA BKN014 FEW040TCU

Aviation Weather

 
Aerbrava facebook Aerbrava twitter Aerbrava instagram Aerbrava Youtube Aerbrava tumblr Aerbrava flikr Aerbrava pinterest

¡html Vàlid! ¡CSS Vàlid!